createdAt,value
2024-02-02T00:07:50.608Z,12.00
2024-02-02T00:22:52.674Z,4.00
2024-02-02T00:37:51.292Z,8.00
2024-02-02T00:52:52.254Z,0.00
2024-02-02T01:07:52.129Z,4.00
2024-02-02T01:22:52.490Z,0.00
2024-02-02T01:37:52.884Z,0.00
2024-02-02T01:52:53.227Z,4.00
2024-02-02T02:07:53.509Z,16.00
2024-02-02T02:22:54.404Z,4.00
2024-02-02T02:37:54.815Z,0.00
2024-02-02T02:52:55.144Z,4.00
2024-02-02T03:07:55.486Z,16.00
2024-02-02T03:22:55.890Z,4.00
2024-02-02T03:37:56.145Z,12.00
2024-02-02T03:52:57.044Z,12.00
2024-02-02T04:07:57.963Z,20.00
2024-02-02T04:22:58.216Z,24.00
2024-02-02T04:37:58.905Z,32.00
2024-02-02T04:52:59.763Z,40.00
2024-02-02T05:08:00.664Z,36.00
2024-02-02T05:23:00.861Z,36.00
2024-02-02T05:38:01.627Z,52.00
2024-02-02T05:53:02.366Z,52.00
2024-02-02T06:08:02.841Z,48.00
2024-02-02T06:23:04.294Z,68.00
2024-02-02T06:38:03.994Z,76.00
2024-02-02T06:53:04.437Z,120.00
2024-02-02T07:08:05.002Z,108.00
2024-02-02T07:23:05.593Z,104.00
2024-02-02T07:38:06.226Z,92.00
2024-02-02T07:53:06.829Z,88.00
2024-02-02T08:08:07.575Z,64.00
2024-02-02T08:23:08.266Z,80.00
2024-02-02T08:38:08.834Z,80.00
2024-02-02T08:53:09.393Z,100.00
2024-02-02T09:08:09.969Z,96.00
2024-02-02T09:23:10.642Z,64.00
2024-02-02T09:38:11.440Z,132.00
2024-02-02T09:53:11.499Z,112.00
2024-02-02T10:08:12.132Z,72.00
2024-02-02T10:23:12.553Z,156.00
2024-02-02T10:38:12.972Z,140.00
2024-02-02T10:53:13.579Z,132.00
2024-02-02T11:08:14.115Z,136.00
2024-02-02T11:23:14.708Z,152.00
2024-02-02T11:38:15.225Z,152.00
2024-02-02T11:53:15.652Z,184.00
2024-02-02T12:08:16.696Z,280.00
2024-02-02T12:23:17.128Z,220.00
2024-02-02T12:38:18.045Z,640.00
2024-02-02T12:53:18.458Z,480.00
2024-02-02T13:08:18.961Z,356.00
2024-02-02T13:23:20.042Z,196.00
2024-02-02T13:38:20.373Z,200.00
2024-02-02T13:53:20.916Z,172.00
2024-02-02T14:08:21.446Z,116.00
2024-02-02T14:23:21.880Z,168.00
2024-02-02T14:38:22.216Z,172.00
2024-02-02T14:53:22.630Z,184.00
2024-02-02T15:08:23.049Z,148.00
2024-02-02T15:23:24.249Z,196.00
2024-02-02T15:38:24.776Z,128.00
2024-02-02T15:53:25.203Z,176.00
2024-02-02T16:08:25.719Z,116.00
2024-02-02T16:23:26.173Z,148.00
2024-02-02T16:38:26.792Z,136.00
2024-02-02T16:53:27.356Z,124.00
2024-02-02T17:08:27.859Z,156.00
2024-02-02T17:23:28.398Z,136.00
2024-02-02T17:38:29.030Z,84.00
2024-02-02T17:53:29.530Z,156.00
2024-02-02T18:08:30.369Z,92.00
2024-02-02T18:23:30.935Z,120.00
2024-02-02T18:38:31.627Z,80.00
2024-02-02T18:53:32.365Z,52.00
2024-02-02T19:08:33.077Z,68.00
2024-02-02T19:23:33.824Z,72.00
2024-02-02T19:38:34.639Z,60.00
2024-02-02T19:53:35.347Z,48.00
2024-02-02T20:08:36.058Z,52.00
2024-02-02T20:23:36.846Z,12.00
2024-02-02T20:38:37.588Z,44.00
2024-02-02T20:53:38.103Z,32.00
2024-02-02T21:08:38.891Z,40.00
2024-02-02T21:23:39.616Z,72.00
2024-02-02T21:38:40.386Z,40.00
2024-02-02T21:53:41.164Z,28.00
2024-02-02T22:08:41.960Z,28.00
2024-02-02T22:23:42.851Z,28.00
2024-02-02T22:38:43.085Z,28.00
2024-02-02T22:53:43.824Z,36.00
2024-02-02T23:08:44.583Z,16.00
2024-02-02T23:23:45.702Z,28.00
2024-02-02T23:38:46.078Z,4.00
2024-02-02T23:53:46.328Z,16.00
